< < Back
Terminal Aerodrome Forecast


Current Version              Previous Versions:   1  2  3  4  5  6  7  8  9  

Terminal Aerodrome Forecast

130
FTUS42 KGSP 202100 AAA
TAFCLT
TAF AMD
KCLT 202105Z 2021/2118 20008KT P6SM FEW045 SCT250
     FM210100 19004KT P6SM SCT100 BKN200
     FM210700 22004KT P6SM SCT250
     FM211400 30009KT P6SM SCT030=

Latest METAR

146
SAUS70 KWBC 202156
MTRCLT
METAR KCLT 202152Z 19008KT 10SM FEW050 SCT250 20/08 A2999 RMK AO2 SLP151
T02000083


USA.gov is the U.S. government's official web portal to all federal, state and local government web resources and services.